createdAt,value
2022-08-23T00:02:00.489Z,62.75
2022-08-23T00:04:34.773Z,62.30
2022-08-23T00:07:04.377Z,63.92
2022-08-23T00:09:32.955Z,62.77
2022-08-23T00:12:08.851Z,65.23
2022-08-23T00:14:38.681Z,63.24
2022-08-23T00:17:09.049Z,63.02
2022-08-23T00:19:37.066Z,62.46
2022-08-23T00:22:05.709Z,63.33
2022-08-23T00:24:34.871Z,62.79
2022-08-23T00:27:08.513Z,64.79
2022-08-23T00:29:39.166Z,64.75
2022-08-23T00:32:09.727Z,64.41
2022-08-23T00:34:38.791Z,63.58
2022-08-23T00:37:07.458Z,66.10
2022-08-23T00:39:35.065Z,65.63
2022-08-23T00:42:29.173Z,64.06
2022-08-23T00:45:14.717Z,62.88
2022-08-23T00:47:43.074Z,64.02
2022-08-23T00:50:24.225Z,63.02
2022-08-23T00:52:58.780Z,62.72
2022-08-23T00:55:28.378Z,61.32
2022-08-23T00:57:57.944Z,62.01
2022-08-23T01:00:26.289Z,63.41
2022-08-23T01:02:54.392Z,63.52
2022-08-23T01:05:26.018Z,62.89
2022-08-23T01:07:55.601Z,64.54
2022-08-23T01:10:27.741Z,61.16
2022-08-23T01:13:00.324Z,62.98
2022-08-23T01:15:30.431Z,60.96
2022-08-23T01:18:02.610Z,58.71
2022-08-23T01:20:36.098Z,59.73
2022-08-23T01:23:07.126Z,60.07
2022-08-23T01:25:36.510Z,59.34
2022-08-23T01:28:05.160Z,58.42
2022-08-23T01:30:34.509Z,59.09
2022-08-23T01:33:03.663Z,58.80
2022-08-23T01:35:39.275Z,59.22
2022-08-23T01:38:07.237Z,57.82
2022-08-23T01:40:37.178Z,58.13
2022-08-23T01:43:05.958Z,59.79
2022-08-23T01:45:36.561Z,59.46
2022-08-23T01:48:07.833Z,58.93
2022-08-23T01:53:08.510Z,58.92
2022-08-23T01:55:38.006Z,57.47
2022-08-23T01:58:06.833Z,58.16
2022-08-23T02:00:37.401Z,57.74
2022-08-23T02:03:07.672Z,58.13
2022-08-23T02:05:38.263Z,57.81
2022-08-23T02:08:20.833Z,57.48
2022-08-23T02:10:51.452Z,58.29
2022-08-23T02:13:20.021Z,58.22
2022-08-23T02:15:51.152Z,58.14
2022-08-23T02:18:19.585Z,57.98
2022-08-23T02:20:48.227Z,56.76
2022-08-23T02:23:16.582Z,57.97
2022-08-23T02:25:44.488Z,56.80
2022-08-23T02:28:14.112Z,59.26
2022-08-23T02:30:41.701Z,59.39
2022-08-23T02:33:11.043Z,61.54
2022-08-23T02:35:40.173Z,58.55
2022-08-23T02:38:09.143Z,59.17
2022-08-23T02:40:37.316Z,57.97
2022-08-23T02:43:06.568Z,58.37
2022-08-23T02:45:35.918Z,57.61
2022-08-23T02:48:04.062Z,57.68
2022-08-23T02:50:40.705Z,57.20
2022-08-23T02:53:09.621Z,56.73
2022-08-23T02:55:37.553Z,57.17
2022-08-23T02:58:05.520Z,58.05
2022-08-23T03:00:33.248Z,56.25
2022-08-23T03:03:02.095Z,57.87
2022-08-23T03:05:31.211Z,56.22
2022-08-23T03:07:59.087Z,56.83
2022-08-23T03:10:26.905Z,56.67
2022-08-23T03:12:59.643Z,58.01
2022-08-23T03:15:27.258Z,57.39
2022-08-23T03:17:57.997Z,57.48
2022-08-23T03:20:27.253Z,56.99
2022-08-23T03:22:55.152Z,57.32
2022-08-23T03:25:25.697Z,56.67
2022-08-23T03:28:05.535Z,57.02
2022-08-23T03:30:35.010Z,57.29
2022-08-23T03:33:05.990Z,56.77
2022-08-23T03:35:36.343Z,57.46
2022-08-23T03:38:04.924Z,56.93
2022-08-23T03:40:32.630Z,56.89
2022-08-23T03:43:01.963Z,56.73
2022-08-23T03:45:31.000Z,56.65
2022-08-23T03:47:58.876Z,57.24
2022-08-23T03:50:27.250Z,56.09
2022-08-23T03:52:56.887Z,57.67
2022-08-23T03:55:24.517Z,56.94
2022-08-23T03:57:52.612Z,57.44
2022-08-23T04:00:22.049Z,57.01
2022-08-23T04:02:52.546Z,56.49
2022-08-23T04:05:21.686Z,57.13
2022-08-23T04:08:12.246Z,57.10
2022-08-23T04:10:42.475Z,57.09
2022-08-23T04:13:11.408Z,57.29
2022-08-23T04:15:39.667Z,57.64
2022-08-23T04:18:11.495Z,57.69
2022-08-23T04:20:39.107Z,58.50
2022-08-23T04:23:06.834Z,57.49
2022-08-23T04:25:46.641Z,58.41
2022-08-23T04:28:14.950Z,58.65
2022-08-23T04:30:45.741Z,57.67
2022-08-23T04:33:18.023Z,58.70
2022-08-23T04:35:46.573Z,58.62
2022-08-23T04:38:24.361Z,58.79
2022-08-23T04:41:15.912Z,59.35
2022-08-23T04:43:46.329Z,59.62
2022-08-23T04:46:15.558Z,60.33
2022-08-23T04:48:45.395Z,61.72
2022-08-23T04:51:13.565Z,63.59
2022-08-23T04:53:42.210Z,63.74
2022-08-23T04:56:37.038Z,64.97
2022-08-23T04:59:04.844Z,65.22
2022-08-23T05:01:34.753Z,66.61
2022-08-23T05:04:02.385Z,67.83
2022-08-23T05:06:30.121Z,68.70
2022-08-23T05:08:57.749Z,69.37
2022-08-23T05:11:25.528Z,69.87
2022-08-23T05:13:54.976Z,69.51
2022-08-23T05:16:23.731Z,70.42
2022-08-23T05:19:02.794Z,70.20
2022-08-23T05:21:32.831Z,71.49
2022-08-23T05:24:03.790Z,71.40
2022-08-23T05:26:31.658Z,71.01
2022-08-23T05:29:00.842Z,69.81
2022-08-23T05:31:37.146Z,71.44
2022-08-23T05:34:05.262Z,69.90
2022-08-23T05:36:55.268Z,68.72
2022-08-23T05:39:36.459Z,69.14
2022-08-23T05:42:07.725Z,67.19
2022-08-23T05:44:37.210Z,68.13
2022-08-23T05:47:11.075Z,68.13
2022-08-23T05:49:47.872Z,66.93
2022-08-23T05:52:15.925Z,65.37
2022-08-23T05:54:44.974Z,67.01
2022-08-23T05:57:31.172Z,65.33
2022-08-23T06:00:00.021Z,65.71
2022-08-23T06:02:27.822Z,64.29
2022-08-23T06:04:57.419Z,64.84
2022-08-23T06:07:25.291Z,63.97
2022-08-23T06:09:54.903Z,63.56
2022-08-23T06:12:22.515Z,64.57
2022-08-23T06:14:50.166Z,64.00
2022-08-23T06:17:21.826Z,62.80
2022-08-23T06:19:49.438Z,62.46
2022-08-23T06:22:26.389Z,61.83
2022-08-23T06:24:54.033Z,62.40
2022-08-23T06:27:41.565Z,62.78
2022-08-23T06:30:13.119Z,62.27
2022-08-23T06:32:48.647Z,60.34
2022-08-23T06:35:49.872Z,60.99
2022-08-23T06:38:26.142Z,60.91
2022-08-23T06:41:12.943Z,60.05
2022-08-23T06:44:15.533Z,58.93
2022-08-23T06:47:01.670Z,58.25
2022-08-23T06:49:30.835Z,54.60
2022-08-23T06:52:01.410Z,54.38
2022-08-23T06:54:53.869Z,50.82
2022-08-23T06:57:32.373Z,50.50
2022-08-23T07:00:22.424Z,48.70
2022-08-23T07:03:20.981Z,49.60
2022-08-23T07:06:22.121Z,48.46
2022-08-23T07:08:49.790Z,47.32
2022-08-23T07:11:17.868Z,48.13
2022-08-23T07:14:10.254Z,45.00
2022-08-23T07:16:40.812Z,45.95
2022-08-23T07:19:09.629Z,45.41
2022-08-23T07:21:39.222Z,44.14
2022-08-23T07:24:07.339Z,42.32
2022-08-23T07:26:36.039Z,43.04
2022-08-23T07:29:04.533Z,41.48
2022-08-23T07:31:34.236Z,42.43
2022-08-23T07:34:03.458Z,40.70
2022-08-23T07:36:34.549Z,42.66
2022-08-23T07:39:06.258Z,41.52
2022-08-23T07:41:35.646Z,43.11
2022-08-23T07:44:05.128Z,42.21
2022-08-23T07:46:34.872Z,40.70
2022-08-23T07:49:04.583Z,41.90
2022-08-23T07:51:37.295Z,40.15
2022-08-23T07:54:09.415Z,38.70
2022-08-23T07:56:45.730Z,38.62
2022-08-23T07:59:34.124Z,40.71
2022-08-23T08:02:22.574Z,38.97
2022-08-23T08:04:50.559Z,39.02
2022-08-23T08:07:20.717Z,39.45
2022-08-23T08:09:57.620Z,38.47
2022-08-23T08:12:26.333Z,38.54
2022-08-23T08:14:56.431Z,38.73
2022-08-23T08:17:29.792Z,37.83
2022-08-23T08:19:59.940Z,37.76
2022-08-23T08:22:58.738Z,39.83
2022-08-23T08:26:02.265Z,40.12
2022-08-23T08:28:31.232Z,39.35
2022-08-23T08:30:59.523Z,39.40
2022-08-23T08:33:30.986Z,38.83
2022-08-23T08:36:02.542Z,38.75
2022-08-23T08:38:31.621Z,38.46
2022-08-23T08:41:17.390Z,37.58
2022-08-23T08:43:55.110Z,39.06
2022-08-23T08:46:26.171Z,39.09
2022-08-23T08:48:57.641Z,38.32
2022-08-23T08:51:37.906Z,36.87
2022-08-23T08:54:08.222Z,36.10
2022-08-23T08:56:41.809Z,36.75
2022-08-23T08:59:22.794Z,34.67
2022-08-23T09:01:50.822Z,36.50
2022-08-23T09:04:25.799Z,35.11
2022-08-23T09:07:00.174Z,36.06
2022-08-23T09:09:40.292Z,36.58
2022-08-23T09:12:16.142Z,35.71
2022-08-23T09:14:55.444Z,36.98
2022-08-23T09:17:27.743Z,36.64
2022-08-23T09:20:00.194Z,38.48
2022-08-23T09:22:35.611Z,37.66
2022-08-23T09:25:10.729Z,36.79
2022-08-23T09:27:48.753Z,36.31
2022-08-23T09:30:18.766Z,36.78
2022-08-23T09:35:11.319Z,36.85
2022-08-23T09:37:55.153Z,38.19
2022-08-23T09:40:31.025Z,36.85
2022-08-23T09:43:09.063Z,39.71
2022-08-23T09:45:40.041Z,40.12
2022-08-23T09:48:13.969Z,38.60
2022-08-23T09:50:54.566Z,39.05
2022-08-23T09:53:27.942Z,35.08
2022-08-23T09:55:57.166Z,36.56
2022-08-23T09:58:31.729Z,36.75
2022-08-23T10:01:11.307Z,38.04
2022-08-23T10:03:39.986Z,35.35
2022-08-23T10:06:31.097Z,36.58
2022-08-23T10:09:05.133Z,35.23
2022-08-23T10:11:38.446Z,35.58
2022-08-23T10:14:05.966Z,36.43
2022-08-23T10:16:41.189Z,34.41
2022-08-23T10:19:21.052Z,36.13
2022-08-23T10:21:57.296Z,35.96
2022-08-23T10:24:31.101Z,37.04
2022-08-23T10:27:36.838Z,39.06
2022-08-23T10:30:08.366Z,36.50
2022-08-23T10:32:46.569Z,36.06
2022-08-23T10:35:25.833Z,35.90
2022-08-23T10:38:05.304Z,35.49
2022-08-23T10:40:38.401Z,35.12
2022-08-23T10:43:15.770Z,35.54
2022-08-23T10:45:46.660Z,34.57
2022-08-23T10:48:36.893Z,34.78
2022-08-23T10:51:08.349Z,35.04
2022-08-23T10:53:45.977Z,34.86
2022-08-23T10:56:18.630Z,35.19
2022-08-23T10:58:54.673Z,34.07
2022-08-23T11:01:26.613Z,34.40
2022-08-23T11:04:02.541Z,33.94
2022-08-23T11:06:47.298Z,33.77
2022-08-23T11:09:47.665Z,33.40
2022-08-23T11:12:31.917Z,34.11
2022-08-23T11:15:12.219Z,35.16
2022-08-23T11:17:57.367Z,33.96
2022-08-23T11:21:01.761Z,33.63
2022-08-23T11:23:51.778Z,33.39
2022-08-23T11:27:06.066Z,33.98
2022-08-23T11:29:41.583Z,33.92
2022-08-23T11:32:42.119Z,32.52
2022-08-23T11:35:35.357Z,33.00
2022-08-23T11:38:05.187Z,31.86
2022-08-23T11:40:44.730Z,32.64
2022-08-23T11:43:23.180Z,32.08
2022-08-23T11:45:52.104Z,32.72
2022-08-23T11:48:24.645Z,32.52
2022-08-23T11:51:07.289Z,31.23
2022-08-23T11:54:03.342Z,32.36
2022-08-23T11:56:52.269Z,32.90
2022-08-23T11:59:30.055Z,31.33
2022-08-23T12:02:00.285Z,32.30
2022-08-23T12:04:33.466Z,31.95
2022-08-23T12:07:07.668Z,32.30
2022-08-23T12:09:54.405Z,32.73
2022-08-23T12:12:28.909Z,31.16
2022-08-23T12:14:58.518Z,30.43
2022-08-23T12:18:08.299Z,31.60
2022-08-23T12:20:37.850Z,30.08
2022-08-23T12:23:19.565Z,30.27
2022-08-23T12:25:47.448Z,29.63
2022-08-23T12:28:32.069Z,28.90
2022-08-23T12:31:13.103Z,28.36
2022-08-23T12:33:50.735Z,28.21
2022-08-23T12:36:25.585Z,29.80
2022-08-23T12:38:59.429Z,28.91
2022-08-23T12:41:29.236Z,28.26
2022-08-23T12:44:00.201Z,28.87
2022-08-23T12:46:34.123Z,28.91
2022-08-23T12:49:04.041Z,28.74
2022-08-23T12:51:31.710Z,29.60
2022-08-23T12:54:13.360Z,27.87
2022-08-23T12:56:40.965Z,28.28
2022-08-23T12:59:33.898Z,28.07
2022-08-23T13:02:03.038Z,29.17
2022-08-23T13:04:33.511Z,28.31
2022-08-23T13:07:05.467Z,30.50
2022-08-23T13:09:36.441Z,30.31
2022-08-23T13:12:06.262Z,29.21
2022-08-23T13:14:38.593Z,29.42
2022-08-23T13:17:18.789Z,29.75
2022-08-23T13:19:48.974Z,29.80
2022-08-23T13:22:23.755Z,28.78
2022-08-23T13:27:54.784Z,26.03
2022-08-23T13:30:26.040Z,27.94
2022-08-23T13:32:54.703Z,27.41
2022-08-23T13:35:34.448Z,27.20
2022-08-23T13:38:20.875Z,26.55
2022-08-23T13:40:56.178Z,26.21
2022-08-23T13:43:26.257Z,26.41
2022-08-23T13:45:57.709Z,25.90
2022-08-23T13:48:26.869Z,26.69
2022-08-23T13:50:55.863Z,23.92
2022-08-23T13:53:23.555Z,26.31
2022-08-23T13:55:53.087Z,26.13
2022-08-23T13:58:28.983Z,27.63
2022-08-23T14:00:58.932Z,26.19
2022-08-23T14:03:28.719Z,25.91
2022-08-23T14:05:57.913Z,24.45
2022-08-23T14:08:25.553Z,25.37
2022-08-23T14:10:53.180Z,24.85
2022-08-23T14:13:25.005Z,22.67
2022-08-23T14:16:33.015Z,25.26
2022-08-23T14:19:16.184Z,24.26
2022-08-23T14:21:29.021Z,20.45
2022-08-23T14:23:56.847Z,22.94
2022-08-23T14:26:24.465Z,20.77
2022-08-23T14:28:54.316Z,21.43
2022-08-23T14:31:22.345Z,23.77
2022-08-23T14:33:49.868Z,24.86
2022-08-23T14:36:17.466Z,24.85
2022-08-23T14:38:46.626Z,23.07
2022-08-23T14:41:19.490Z,23.47
2022-08-23T14:43:47.145Z,24.33
2022-08-23T14:46:15.010Z,23.38
2022-08-23T14:48:42.657Z,24.35
2022-08-23T14:51:13.354Z,25.01
2022-08-23T14:53:40.917Z,23.87
2022-08-23T14:56:21.044Z,22.37
2022-08-23T14:58:49.890Z,21.93
2022-08-23T15:01:19.159Z,25.67
2022-08-23T15:03:47.669Z,24.83
2022-08-23T15:06:16.213Z,25.09
2022-08-23T15:08:44.725Z,26.08
2022-08-23T15:14:04.814Z,26.53
2022-08-23T15:16:33.455Z,25.50
2022-08-23T15:19:01.242Z,27.56
2022-08-23T15:21:29.233Z,27.48
2022-08-23T15:23:56.978Z,26.73
2022-08-23T15:26:27.665Z,29.29
2022-08-23T15:28:55.301Z,29.18
2022-08-23T15:31:23.998Z,31.47
2022-08-23T15:33:51.651Z,27.39
2022-08-23T15:36:19.544Z,24.98
2022-08-23T15:38:48.946Z,26.22
2022-08-23T15:41:17.771Z,24.50
2022-08-23T15:43:46.834Z,24.25
2022-08-23T15:46:20.376Z,25.49
2022-08-23T15:48:50.980Z,24.80
2022-08-23T15:51:19.026Z,25.17
2022-08-23T15:53:46.924Z,24.30
2022-08-23T15:56:16.773Z,24.57
2022-08-23T15:58:45.697Z,25.23
2022-08-23T16:01:13.390Z,25.65
2022-08-23T16:03:43.244Z,24.57
2022-08-23T16:06:12.910Z,26.12
2022-08-23T16:08:42.871Z,27.18
2022-08-23T16:11:12.707Z,28.17
2022-08-23T16:13:44.759Z,29.50
2022-08-23T16:16:18.826Z,29.79
2022-08-23T16:18:46.888Z,30.43
2022-08-23T16:21:15.184Z,31.27
2022-08-23T16:23:43.072Z,32.66
2022-08-23T16:26:14.335Z,32.98
2022-08-23T16:28:48.373Z,33.04
2022-08-23T16:31:18.120Z,32.68
2022-08-23T16:33:47.658Z,32.70
2022-08-23T16:36:17.594Z,32.91
2022-08-23T16:38:45.636Z,33.00
2022-08-23T16:41:13.465Z,33.34
2022-08-23T16:43:41.066Z,34.37
2022-08-23T16:46:09.091Z,33.63
2022-08-23T16:48:38.199Z,33.59
2022-08-23T16:51:05.881Z,34.48
2022-08-23T16:53:33.477Z,34.30
2022-08-23T16:56:01.241Z,34.26
2022-08-23T16:58:29.017Z,34.89
2022-08-23T17:00:56.570Z,34.81
2022-08-23T17:03:27.042Z,35.09
2022-08-23T17:05:56.161Z,35.65
2022-08-23T17:08:23.771Z,35.35
2022-08-23T17:10:51.370Z,35.80
2022-08-23T17:13:19.371Z,35.35
2022-08-23T17:15:46.869Z,36.79
2022-08-23T17:18:14.402Z,36.02
2022-08-23T17:20:42.240Z,36.26
2022-08-23T17:23:11.698Z,36.26
2022-08-23T17:25:41.576Z,36.57
2022-08-23T17:28:09.223Z,36.17
2022-08-23T17:30:37.359Z,36.24
2022-08-23T17:33:05.491Z,35.84
2022-08-23T17:35:34.274Z,36.31
2022-08-23T17:38:02.326Z,36.88
2022-08-23T17:40:33.262Z,36.64
2022-08-23T17:43:03.105Z,37.72
2022-08-23T17:45:33.578Z,37.44
2022-08-23T17:48:01.154Z,37.26
2022-08-23T17:50:28.737Z,38.76
2022-08-23T17:52:56.429Z,39.67
2022-08-23T17:55:24.068Z,38.46
2022-08-23T17:58:02.152Z,38.72
2022-08-23T18:00:33.031Z,39.21
2022-08-23T18:03:01.322Z,39.43
2022-08-23T18:05:31.325Z,40.59
2022-08-23T18:07:58.882Z,41.15
2022-08-23T18:10:26.653Z,41.67
2022-08-23T18:12:57.204Z,42.35
2022-08-23T18:15:25.370Z,42.42
2022-08-23T18:17:58.054Z,43.96
2022-08-23T18:20:26.374Z,44.05
2022-08-23T18:22:54.345Z,43.95
2022-08-23T18:25:22.107Z,44.51
2022-08-23T18:28:08.073Z,46.33
2022-08-23T18:30:46.233Z,47.13
2022-08-23T18:33:14.366Z,46.93
2022-08-23T18:35:43.390Z,47.50
2022-08-23T18:38:12.339Z,47.41
2022-08-23T18:40:46.046Z,47.80
2022-08-23T18:43:15.940Z,48.88
2022-08-23T18:45:46.139Z,49.32
2022-08-23T18:48:13.783Z,48.61
2022-08-23T18:50:42.370Z,47.63
2022-08-23T18:53:09.993Z,48.54
2022-08-23T18:55:38.185Z,49.22
2022-08-23T18:58:07.818Z,49.76
2022-08-23T19:00:36.170Z,50.10
2022-08-23T19:03:07.965Z,50.95
2022-08-23T19:05:41.506Z,51.24
2022-08-23T19:08:10.535Z,51.97
2022-08-23T19:10:38.293Z,52.21
2022-08-23T19:13:06.316Z,52.10
2022-08-23T19:15:34.243Z,53.41
2022-08-23T19:18:02.141Z,53.99
2022-08-23T19:20:31.169Z,55.21
2022-08-23T19:22:58.902Z,55.30
2022-08-23T19:25:26.937Z,56.52
2022-08-23T19:27:54.449Z,56.89
2022-08-23T19:30:22.645Z,58.13
2022-08-23T19:32:50.491Z,59.15
2022-08-23T19:35:18.149Z,59.35
2022-08-23T19:37:47.037Z,60.50
2022-08-23T19:40:15.288Z,61.65
2022-08-23T19:42:42.880Z,61.26
2022-08-23T19:45:11.519Z,61.86
2022-08-23T19:47:40.186Z,64.00
2022-08-23T19:50:09.808Z,64.06
2022-08-23T19:52:37.497Z,63.40
2022-08-23T19:55:07.649Z,62.56
2022-08-23T19:57:36.724Z,63.26
2022-08-23T20:00:10.031Z,64.24
2022-08-23T20:02:37.585Z,63.65
2022-08-23T20:05:06.693Z,63.45
2022-08-23T20:07:35.098Z,63.40
2022-08-23T20:10:03.165Z,64.47
2022-08-23T20:12:33.162Z,64.07
2022-08-23T20:15:01.102Z,63.41
2022-08-23T20:17:29.078Z,62.53
2022-08-23T20:19:56.719Z,62.04
2022-08-23T20:22:42.196Z,61.58
2022-08-23T20:25:10.236Z,62.62
2022-08-23T20:27:39.240Z,62.13
2022-08-23T20:30:08.150Z,61.91
2022-08-23T20:32:36.469Z,61.43
2022-08-23T20:35:07.502Z,62.01
2022-08-23T20:37:35.373Z,60.50
2022-08-23T20:40:03.276Z,61.41
2022-08-23T20:42:31.213Z,61.77
2022-08-23T20:45:00.260Z,61.26
2022-08-23T20:47:27.858Z,60.45
2022-08-23T20:49:55.729Z,61.34
2022-08-23T20:52:23.319Z,61.65
2022-08-23T20:54:52.064Z,62.28
2022-08-23T20:57:19.614Z,62.04
2022-08-23T20:59:47.216Z,62.10
2022-08-23T21:02:16.409Z,62.06
2022-08-23T21:04:43.985Z,61.41
2022-08-23T21:07:12.526Z,60.45
2022-08-23T21:09:40.314Z,60.10
2022-08-23T21:12:08.352Z,60.78
2022-08-23T21:14:36.067Z,60.89
2022-08-23T21:17:03.677Z,61.37
2022-08-23T21:19:32.533Z,61.79
2022-08-23T21:22:00.272Z,63.06
2022-08-23T21:24:28.070Z,65.00
2022-08-23T21:26:55.629Z,64.32
2022-08-23T21:29:23.413Z,64.25
2022-08-23T21:31:51.272Z,65.04
2022-08-23T21:34:18.845Z,65.96
2022-08-23T21:36:47.759Z,65.13
2022-08-23T21:39:15.297Z,64.87
2022-08-23T21:41:45.715Z,64.59
2022-08-23T21:44:16.783Z,64.02
2022-08-23T21:46:45.070Z,64.85
2022-08-23T21:49:13.169Z,64.13
2022-08-23T21:51:41.066Z,64.23
2022-08-23T21:54:11.152Z,64.57
2022-08-23T21:56:39.081Z,65.80
2022-08-23T21:59:08.805Z,64.99
2022-08-23T22:01:37.108Z,65.10
2022-08-23T22:04:07.323Z,65.07
2022-08-23T22:06:36.294Z,65.49
2022-08-23T22:09:05.511Z,65.22
2022-08-23T22:11:36.002Z,63.99
2022-08-23T22:14:03.549Z,64.93
2022-08-23T22:16:31.321Z,65.04
2022-08-23T22:18:58.901Z,64.19
2022-08-23T22:21:26.488Z,64.01
2022-08-23T22:23:56.791Z,65.01
2022-08-23T22:26:24.338Z,62.92
2022-08-23T22:28:53.389Z,62.46
2022-08-23T22:31:21.098Z,63.18
2022-08-23T22:33:48.926Z,63.02
2022-08-23T22:36:18.998Z,63.64
2022-08-23T22:38:46.978Z,65.44
2022-08-23T22:41:17.907Z,64.94
2022-08-23T22:43:45.776Z,64.81
2022-08-23T22:46:14.999Z,65.33
2022-08-23T22:48:42.693Z,66.22
2022-08-23T22:51:12.491Z,66.45
2022-08-23T22:53:44.410Z,67.25
2022-08-23T22:56:13.546Z,66.98
2022-08-23T22:58:41.472Z,66.58
2022-08-23T23:01:13.483Z,66.20
2022-08-23T23:03:43.317Z,67.48
2022-08-23T23:06:11.142Z,67.93
2022-08-23T23:08:39.678Z,68.25
2022-08-23T23:11:10.018Z,67.75
2022-08-23T23:13:37.837Z,68.36
2022-08-23T23:16:07.158Z,67.74
2022-08-23T23:18:35.167Z,67.42
2022-08-23T23:21:05.069Z,66.00
2022-08-23T23:23:33.620Z,65.37
2022-08-23T23:26:01.464Z,63.22
2022-08-23T23:28:29.149Z,62.25
2022-08-23T23:30:59.522Z,61.62
2022-08-23T23:33:27.875Z,59.70
2022-08-23T23:35:55.514Z,60.43
2022-08-23T23:38:24.462Z,59.34
2022-08-23T23:40:52.090Z,59.49
2022-08-23T23:43:19.643Z,60.35
2022-08-23T23:45:47.269Z,60.59
2022-08-23T23:48:14.888Z,61.52
2022-08-23T23:50:46.405Z,61.11
2022-08-23T23:53:14.748Z,61.11
2022-08-23T23:55:44.453Z,61.47
2022-08-23T23:58:12.522Z,61.96
